createdAt,value
2022-09-05T00:03:03.933Z,16.97
2022-09-05T00:08:03.747Z,16.94
2022-09-05T00:13:07.115Z,16.86
2022-09-05T00:18:56.502Z,16.81
2022-09-05T00:24:25.767Z,16.78
2022-09-05T00:28:25.335Z,16.71
2022-09-05T00:33:26.638Z,16.67
2022-09-05T00:38:04.456Z,16.64
2022-09-05T00:43:03.354Z,16.60
2022-09-05T00:48:03.409Z,16.53
2022-09-05T00:53:07.589Z,16.48
2022-09-05T00:58:03.184Z,16.42
2022-09-05T01:03:03.286Z,16.35
2022-09-05T01:08:03.124Z,16.28
2022-09-05T01:13:03.086Z,16.25
2022-09-05T01:18:02.968Z,16.25
2022-09-05T01:23:08.372Z,16.24
2022-09-05T01:29:14.178Z,16.24
2022-09-05T01:33:06.134Z,16.21
2022-09-05T01:38:02.824Z,16.39
2022-09-05T01:43:02.704Z,16.71
2022-09-05T01:48:02.622Z,16.94
2022-09-05T01:53:05.621Z,17.11
2022-09-05T01:58:02.537Z,17.06
2022-09-05T02:03:02.567Z,17.06
2022-09-05T02:08:02.494Z,17.01
2022-09-05T02:13:03.548Z,16.83
2022-09-05T02:18:02.306Z,16.79
2022-09-05T02:23:02.344Z,16.94
2022-09-05T02:28:05.811Z,17.36
2022-09-05T02:33:02.134Z,17.77
2022-09-05T02:40:42.770Z,18.05
2022-09-05T02:45:10.437Z,18.18
2022-09-05T02:48:15.378Z,18.25
2022-09-05T02:57:33.416Z,18.25
2022-09-05T02:58:05.430Z,18.32
2022-09-05T03:03:02.868Z,18.30
2022-09-05T03:08:01.744Z,18.32
2022-09-05T03:13:01.704Z,18.35
2022-09-05T03:18:20.158Z,18.36
2022-09-05T03:23:02.585Z,18.39
2022-09-05T03:28:01.609Z,18.44
2022-09-05T03:33:01.462Z,18.44
2022-09-05T03:38:01.425Z,18.44
2022-09-05T03:43:01.528Z,18.47
2022-09-05T03:48:03.602Z,18.51
2022-09-05T03:57:15.048Z,18.51
2022-09-05T03:58:16.330Z,18.45
2022-09-05T04:08:09.304Z,18.36
2022-09-05T04:08:16.626Z,18.27
2022-09-05T04:13:02.195Z,18.25
2022-09-05T04:18:04.003Z,18.14
2022-09-05T04:23:00.943Z,18.08
2022-09-05T04:28:00.863Z,18.17
2022-09-05T04:33:00.829Z,18.30
2022-09-05T04:38:00.752Z,18.30
2022-09-05T04:43:00.792Z,18.35
2022-09-05T04:48:00.632Z,18.30
2022-09-05T04:53:00.581Z,18.26
2022-09-05T04:58:00.619Z,18.11
2022-09-05T05:06:16.666Z,17.96
2022-09-05T05:08:01.642Z,17.72
2022-09-05T05:17:55.435Z,17.38
2022-09-05T05:18:39.354Z,17.19
2022-09-05T05:23:07.724Z,17.08
2022-09-05T05:28:01.365Z,17.03
2022-09-05T05:33:01.166Z,17.01
2022-09-05T05:38:00.130Z,17.04
2022-09-05T05:43:00.091Z,17.15
2022-09-05T05:48:00.112Z,17.19
2022-09-05T05:53:03.325Z,17.36
2022-09-05T05:57:59.932Z,17.44
2022-09-05T06:03:24.717Z,17.52
2022-09-05T06:10:57.371Z,17.64
2022-09-05T06:14:56.051Z,17.78
2022-09-05T06:18:00.736Z,17.92
2022-09-05T06:22:59.601Z,18.08
2022-09-05T06:28:17.905Z,18.30
2022-09-05T06:33:00.481Z,18.63
2022-09-05T06:37:59.425Z,18.92
2022-09-05T06:42:59.373Z,19.26
2022-09-05T06:47:59.320Z,19.86
2022-09-05T06:52:59.279Z,20.47
2022-09-05T06:58:00.211Z,20.82
2022-09-05T07:03:00.582Z,21.13
2022-09-05T07:07:59.151Z,21.43
2022-09-05T07:13:00.044Z,21.84
2022-09-05T07:18:14.487Z,22.03
2022-09-05T07:23:21.692Z,22.55
2022-09-05T07:28:26.904Z,23.05
2022-09-05T07:32:59.886Z,23.57
2022-09-05T07:37:58.826Z,24.09
2022-09-05T07:43:10.187Z,24.40
2022-09-05T07:47:59.703Z,24.90
2022-09-05T07:56:54.861Z,25.15
2022-09-05T07:57:59.563Z,25.30
2022-09-05T08:02:58.509Z,25.43
2022-09-05T08:07:58.453Z,25.76
2022-09-05T08:13:23.661Z,26.13
2022-09-05T08:17:59.361Z,26.51
2022-09-05T08:22:58.326Z,26.85
2022-09-05T08:27:58.245Z,27.09
2022-09-05T08:33:10.577Z,27.21
2022-09-05T08:37:59.200Z,27.25
2022-09-05T08:46:35.603Z,27.32
2022-09-05T08:47:59.121Z,27.70
2022-09-05T08:52:58.105Z,28.09
2022-09-05T08:57:58.954Z,28.17
2022-09-05T09:02:58.855Z,28.06
2022-09-05T09:07:58.844Z,28.06
2022-09-05T09:12:57.777Z,28.04
2022-09-05T09:17:57.719Z,28.46
2022-09-05T09:22:57.679Z,28.41
2022-09-05T09:28:47.789Z,28.74
2022-09-05T09:32:59.522Z,29.42
2022-09-05T09:37:59.572Z,29.23
2022-09-05T09:42:57.487Z,29.65
2022-09-05T09:47:57.545Z,29.85
2022-09-05T09:52:57.380Z,30.32
2022-09-05T09:57:57.413Z,30.35
2022-09-05T10:05:44.230Z,29.87
2022-09-05T10:10:51.889Z,29.71
2022-09-05T10:13:08.246Z,29.71
2022-09-05T10:17:58.177Z,30.15
2022-09-05T10:22:57.110Z,31.06
2022-09-05T10:27:57.104Z,30.70
2022-09-05T10:35:11.196Z,30.97
2022-09-05T10:37:57.933Z,30.91
2022-09-05T10:43:00.685Z,30.70
2022-09-05T10:47:56.848Z,31.31
2022-09-05T10:52:57.786Z,31.19
2022-09-05T10:57:56.770Z,30.76
2022-09-05T11:02:57.767Z,30.27
2022-09-05T11:07:56.678Z,30.55
2022-09-05T11:12:57.674Z,30.15
2022-09-05T11:17:56.651Z,29.78
2022-09-05T11:22:56.602Z,30.08
2022-09-05T11:27:56.537Z,30.57
2022-09-05T11:36:42.975Z,29.85
2022-09-05T11:39:55.603Z,29.61
2022-09-05T11:43:04.197Z,29.80
2022-09-05T11:48:05.001Z,30.07
2022-09-05T11:52:56.218Z,30.57
2022-09-05T11:57:57.087Z,31.35
2022-09-05T12:02:56.168Z,32.11
2022-09-05T12:07:56.094Z,32.23
2022-09-05T12:12:56.007Z,32.14
2022-09-05T12:17:56.034Z,32.43
2022-09-05T12:22:55.932Z,32.56
2022-09-05T12:28:51.043Z,32.55
2022-09-05T12:36:04.116Z,31.81
2022-09-05T12:40:54.589Z,31.28
2022-09-05T12:44:36.981Z,30.54
2022-09-05T12:47:56.670Z,30.29
2022-09-05T12:52:55.652Z,30.57
2022-09-05T13:02:53.382Z,30.37
2022-09-05T13:03:28.291Z,30.55
2022-09-05T13:07:56.451Z,30.77
2022-09-05T13:15:01.158Z,31.38
2022-09-05T13:17:56.423Z,31.80
2022-09-05T13:22:55.451Z,32.28
2022-09-05T13:27:55.305Z,31.91
2022-09-05T13:38:12.077Z,31.92
2022-09-05T13:38:30.395Z,31.66
2022-09-05T13:42:56.194Z,31.50
2022-09-05T13:47:55.120Z,31.51
2022-09-05T13:52:55.040Z,31.56
2022-09-05T13:57:55.077Z,31.46
2022-09-05T14:07:55.903Z,30.61
2022-09-05T14:13:00.664Z,30.37
2022-09-05T14:17:55.859Z,30.38
2022-09-05T14:22:55.493Z,30.32
2022-09-05T14:27:54.698Z,30.58
2022-09-05T14:37:48.904Z,30.60
2022-09-05T14:38:09.652Z,30.75
2022-09-05T14:42:55.530Z,30.39
2022-09-05T14:47:54.517Z,30.16
2022-09-05T15:02:53.350Z,29.61
2022-09-05T15:03:02.057Z,29.63
2022-09-05T15:07:58.847Z,29.60
2022-09-05T15:12:59.442Z,29.61
2022-09-05T15:17:55.254Z,29.67
2022-09-05T15:22:56.173Z,29.73
2022-09-05T15:27:54.112Z,29.79
2022-09-05T15:32:54.028Z,29.79
2022-09-05T15:37:54.067Z,29.74
2022-09-05T15:42:55.099Z,29.52
2022-09-05T15:47:53.852Z,29.57
2022-09-05T15:52:55.354Z,29.70
2022-09-05T15:57:53.737Z,29.71
2022-09-05T16:02:53.738Z,29.80
2022-09-05T16:10:28.995Z,29.73
2022-09-05T16:12:54.621Z,29.73
2022-09-05T16:23:17.686Z,29.64
2022-09-05T16:23:28.520Z,29.43
2022-09-05T16:27:54.424Z,29.21
2022-09-05T16:32:53.494Z,29.09
2022-09-05T16:37:53.314Z,28.88
2022-09-05T16:42:53.261Z,28.71
2022-09-05T16:47:53.360Z,28.59
2022-09-05T16:52:53.753Z,28.46
2022-09-05T16:57:53.089Z,28.22
2022-09-05T17:02:53.301Z,28.09
2022-09-05T17:07:53.120Z,27.90
2022-09-05T17:12:53.051Z,27.67
2022-09-05T17:18:22.367Z,27.39
2022-09-05T17:26:17.502Z,27.12
2022-09-05T17:29:46.855Z,26.92
2022-09-05T17:32:53.710Z,26.80
2022-09-05T17:37:53.535Z,26.67
2022-09-05T17:42:53.612Z,26.55
2022-09-05T17:47:52.586Z,26.43
2022-09-05T17:52:52.577Z,26.23
2022-09-05T17:57:56.668Z,25.99
2022-09-05T18:02:52.395Z,25.76
2022-09-05T18:07:52.469Z,25.52
2022-09-05T18:13:31.518Z,25.25
2022-09-05T18:17:53.387Z,25.06
2022-09-05T18:22:54.919Z,24.95
2022-09-05T18:28:04.431Z,24.85
2022-09-05T18:32:54.333Z,24.77
2022-09-05T18:37:53.000Z,24.52
2022-09-05T18:42:52.177Z,24.00
2022-09-05T18:47:57.283Z,23.68
2022-09-05T18:53:10.743Z,23.70
2022-09-05T18:57:58.002Z,23.48
2022-09-05T19:02:59.097Z,23.27
2022-09-05T19:07:59.319Z,23.22
2022-09-05T19:12:53.608Z,23.27
2022-09-05T19:17:52.600Z,23.20
2022-09-05T19:23:10.857Z,23.13
2022-09-05T19:31:18.209Z,22.97
2022-09-05T19:37:08.194Z,22.85
2022-09-05T19:37:53.052Z,22.67
2022-09-05T19:47:51.105Z,22.52
2022-09-05T19:48:07.320Z,22.35
2022-09-05T19:52:52.378Z,22.33
2022-09-05T19:57:58.291Z,22.15
2022-09-05T20:02:52.083Z,21.99
2022-09-05T20:07:51.159Z,21.86
2022-09-05T20:12:51.011Z,21.74
2022-09-05T20:17:51.007Z,21.69
2022-09-05T20:22:51.112Z,21.56
2022-09-05T20:27:51.043Z,21.43
2022-09-05T20:32:50.963Z,21.32
2022-09-05T20:43:10.629Z,21.25
2022-09-05T20:43:24.166Z,21.21
2022-09-05T20:54:05.336Z,21.13
2022-09-05T20:54:18.231Z,21.09
2022-09-05T20:57:51.494Z,20.97
2022-09-05T21:02:50.513Z,20.89
2022-09-05T21:07:51.214Z,20.77
2022-09-05T21:12:51.381Z,20.69
2022-09-05T21:17:50.290Z,20.64
2022-09-05T21:22:50.242Z,20.52
2022-09-05T21:27:50.142Z,20.50
2022-09-05T21:32:50.072Z,20.39
2022-09-05T21:37:50.051Z,20.33
2022-09-05T21:44:54.206Z,20.23
2022-09-05T21:47:53.542Z,20.16
2022-09-05T21:53:17.458Z,20.05
2022-09-05T21:59:30.399Z,19.95
2022-09-05T22:02:50.826Z,19.86
2022-09-05T22:07:49.886Z,19.80
2022-09-05T22:12:49.845Z,19.78
2022-09-05T22:17:49.765Z,19.78
2022-09-05T22:22:56.850Z,19.77
2022-09-05T22:27:50.482Z,19.69
2022-09-05T22:32:49.447Z,19.62
2022-09-05T22:37:49.468Z,19.58
2022-09-05T22:42:50.381Z,19.51
2022-09-05T22:47:49.419Z,19.44
2022-09-05T22:52:50.295Z,19.41
2022-09-05T22:57:49.145Z,19.41
2022-09-05T23:02:52.445Z,19.39
2022-09-05T23:07:49.041Z,19.28
2022-09-05T23:12:48.976Z,19.26
2022-09-05T23:17:49.059Z,19.19
2022-09-05T23:22:48.899Z,19.18
2022-09-05T23:27:49.945Z,19.16
2022-09-05T23:32:49.887Z,19.06
2022-09-05T23:37:48.819Z,19.06
2022-09-05T23:42:48.661Z,19.07
2022-09-05T23:47:48.577Z,19.06
2022-09-05T23:52:48.538Z,19.04
2022-09-05T23:57:48.475Z,19.00
